sensor_id;sensor_type;location;lat;lon;timestamp;P1;durP1;ratioP1;P2;durP2;ratioP2
70838;SDS011;58464;52.298;4.852;2022-07-30T00:01:49;6.95;;;3.65;;
70838;SDS011;58464;52.298;4.852;2022-07-30T00:04:15;12.07;;;3.78;;
70838;SDS011;58464;52.298;4.852;2022-07-30T00:06:40;16.42;;;4.28;;
70838;SDS011;58464;52.298;4.852;2022-07-30T00:09:07;16.30;;;4.22;;
70838;SDS011;58464;52.298;4.852;2022-07-30T00:11:32;10.85;;;4.35;;
70838;SDS011;58464;52.298;4.852;2022-07-30T00:13:58;20.98;;;3.88;;
70838;SDS011;58464;52.298;4.852;2022-07-30T00:16:24;9.07;;;3.63;;
70838;SDS011;58464;52.298;4.852;2022-07-30T00:18:49;9.02;;;3.33;;
70838;SDS011;58464;52.298;4.852;2022-07-30T00:21:14;9.05;;;3.85;;
70838;SDS011;58464;52.298;4.852;2022-07-30T00:23:40;9.32;;;3.60;;
70838;SDS011;58464;52.298;4.852;2022-07-30T00:26:05;8.02;;;3.20;;
70838;SDS011;58464;52.298;4.852;2022-07-30T00:28:30;12.18;;;3.78;;
70838;SDS011;58464;52.298;4.852;2022-07-30T00:30:56;14.77;;;3.95;;
70838;SDS011;58464;52.298;4.852;2022-07-30T00:33:21;9.55;;;4.07;;
70838;SDS011;58464;52.298;4.852;2022-07-30T00:35:47;24.00;;;5.28;;
70838;SDS011;58464;52.298;4.852;2022-07-30T00:38:12;16.73;;;4.50;;
70838;SDS011;58464;52.298;4.852;2022-07-30T00:40:37;10.35;;;3.38;;
70838;SDS011;58464;52.298;4.852;2022-07-30T00:43:04;22.20;;;5.05;;
70838;SDS011;58464;52.298;4.852;2022-07-30T00:45:30;14.90;;;4.45;;
70838;SDS011;58464;52.298;4.852;2022-07-30T00:47:55;12.45;;;4.90;;
70838;SDS011;58464;52.298;4.852;2022-07-30T00:50:22;15.10;;;6.10;;
70838;SDS011;58464;52.298;4.852;2022-07-30T00:52:48;15.70;;;5.82;;
70838;SDS011;58464;52.298;4.852;2022-07-30T00:55:13;11.85;;;3.78;;
70838;SDS011;58464;52.298;4.852;2022-07-30T00:57:39;12.25;;;4.22;;
70838;SDS011;58464;52.298;4.852;2022-07-30T01:00:07;13.13;;;4.22;;
70838;SDS011;58464;52.298;4.852;2022-07-30T01:02:35;17.23;;;5.07;;
70838;SDS011;58464;52.298;4.852;2022-07-30T01:05:00;10.18;;;4.50;;
70838;SDS011;58464;52.298;4.852;2022-07-30T01:07:26;15.15;;;4.55;;
70838;SDS011;58464;52.298;4.852;2022-07-30T01:09:51;15.65;;;4.53;;
70838;SDS011;58464;52.298;4.852;2022-07-30T01:12:18;14.23;;;4.07;;
70838;SDS011;58464;52.298;4.852;2022-07-30T01:14:45;6.32;;;3.47;;
70838;SDS011;58464;52.298;4.852;2022-07-30T01:17:11;13.82;;;4.38;;
70838;SDS011;58464;52.298;4.852;2022-07-30T01:19:37;13.68;;;4.28;;
70838;SDS011;58464;52.298;4.852;2022-07-30T01:24:39;16.83;;;4.43;;
70838;SDS011;58464;52.298;4.852;2022-07-30T01:27:08;8.02;;;3.83;;
70838;SDS011;58464;52.298;4.852;2022-07-30T01:29:35;16.42;;;4.00;;
70838;SDS011;58464;52.298;4.852;2022-07-30T01:32:03;8.38;;;4.10;;
70838;SDS011;58464;52.298;4.852;2022-07-30T01:34:32;12.55;;;4.47;;
70838;SDS011;58464;52.298;4.852;2022-07-30T01:36:59;9.77;;;3.95;;
70838;SDS011;58464;52.298;4.852;2022-07-30T01:39:26;9.77;;;4.28;;
70838;SDS011;58464;52.298;4.852;2022-07-30T01:41:54;6.68;;;3.17;;
70838;SDS011;58464;52.298;4.852;2022-07-30T01:44:20;13.82;;;3.65;;
70838;SDS011;58464;52.298;4.852;2022-07-30T01:46:47;12.60;;;3.90;;
70838;SDS011;58464;52.298;4.852;2022-07-30T01:49:13;14.38;;;4.20;;
70838;SDS011;58464;52.298;4.852;2022-07-30T01:51:40;11.23;;;4.13;;
70838;SDS011;58464;52.298;4.852;2022-07-30T01:54:07;14.82;;;4.80;;
70838;SDS011;58464;52.298;4.852;2022-07-30T01:56:34;12.25;;;4.18;;
70838;SDS011;58464;52.298;4.852;2022-07-30T01:59:02;12.10;;;3.67;;
70838;SDS011;58464;52.298;4.852;2022-07-30T02:01:31;13.73;;;3.88;;
70838;SDS011;58464;52.298;4.852;2022-07-30T02:03:57;9.98;;;4.10;;
70838;SDS011;58464;52.298;4.852;2022-07-30T02:06:25;14.20;;;4.43;;
70838;SDS011;58464;52.298;4.852;2022-07-30T02:09:10;21.77;;;5.35;;
70838;SDS011;58464;52.298;4.852;2022-07-30T02:11:44;11.02;;;4.32;;
70838;SDS011;58464;52.298;4.852;2022-07-30T02:14:44;12.77;;;3.90;;
70838;SDS011;58464;52.298;4.852;2022-07-30T02:17:27;14.38;;;4.18;;
70838;SDS011;58464;52.298;4.852;2022-07-30T02:19:56;9.75;;;4.22;;
70838;SDS011;58464;52.298;4.852;2022-07-30T02:22:24;10.13;;;4.10;;
70838;SDS011;58464;52.298;4.852;2022-07-30T02:24:52;16.38;;;5.30;;
70838;SDS011;58464;52.298;4.852;2022-07-30T02:27:24;11.07;;;4.80;;
70838;SDS011;58464;52.298;4.852;2022-07-30T02:32:22;10.52;;;5.15;;
70838;SDS011;58464;52.298;4.852;2022-07-30T02:34:50;10.05;;;5.32;;
70838;SDS011;58464;52.298;4.852;2022-07-30T02:37:21;10.38;;;4.82;;
70838;SDS011;58464;52.298;4.852;2022-07-30T02:39:48;13.77;;;5.80;;
70838;SDS011;58464;52.298;4.852;2022-07-30T02:42:16;13.77;;;5.10;;
70838;SDS011;58464;52.298;4.852;2022-07-30T02:44:43;14.23;;;5.43;;
70838;SDS011;58464;52.298;4.852;2022-07-30T02:47:10;18.92;;;5.65;;
70838;SDS011;58464;52.298;4.852;2022-07-30T02:49:37;11.20;;;6.05;;
70838;SDS011;58464;52.298;4.852;2022-07-30T02:52:05;16.95;;;6.07;;
70838;SDS011;58464;52.298;4.852;2022-07-30T02:54:33;9.75;;;5.80;;
70838;SDS011;58464;52.298;4.852;2022-07-30T02:57:01;12.68;;;6.22;;
70838;SDS011;58464;52.298;4.852;2022-07-30T02:59:28;15.80;;;5.93;;
70838;SDS011;58464;52.298;4.852;2022-07-30T03:01:57;14.35;;;5.88;;
70838;SDS011;58464;52.298;4.852;2022-07-30T03:04:23;15.05;;;5.32;;
70838;SDS011;58464;52.298;4.852;2022-07-30T03:06:50;15.18;;;5.28;;
70838;SDS011;58464;52.298;4.852;2022-07-30T03:09:16;14.88;;;5.47;;
70838;SDS011;58464;52.298;4.852;2022-07-30T03:11:42;16.88;;;6.00;;
70838;SDS011;58464;52.298;4.852;2022-07-30T03:14:09;11.68;;;5.55;;
70838;SDS011;58464;52.298;4.852;2022-07-30T03:16:35;12.13;;;5.93;;
70838;SDS011;58464;52.298;4.852;2022-07-30T03:19:02;12.02;;;5.13;;
70838;SDS011;58464;52.298;4.852;2022-07-30T03:21:31;12.15;;;4.97;;
70838;SDS011;58464;52.298;4.852;2022-07-30T03:23:59;14.65;;;5.60;;
70838;SDS011;58464;52.298;4.852;2022-07-30T03:26:27;14.52;;;6.03;;
70838;SDS011;58464;52.298;4.852;2022-07-30T03:28:54;12.80;;;6.00;;
70838;SDS011;58464;52.298;4.852;2022-07-30T03:31:20;16.30;;;5.75;;
70838;SDS011;58464;52.298;4.852;2022-07-30T03:33:45;10.68;;;4.72;;
70838;SDS011;58464;52.298;4.852;2022-07-30T03:36:11;14.52;;;4.78;;
70838;SDS011;58464;52.298;4.852;2022-07-30T03:38:38;14.10;;;5.53;;
70838;SDS011;58464;52.298;4.852;2022-07-30T03:41:05;9.85;;;5.18;;
70838;SDS011;58464;52.298;4.852;2022-07-30T03:43:31;14.32;;;6.53;;
70838;SDS011;58464;52.298;4.852;2022-07-30T03:45:57;19.00;;;5.45;;
70838;SDS011;58464;52.298;4.852;2022-07-30T03:48:26;20.30;;;5.88;;
70838;SDS011;58464;52.298;4.852;2022-07-30T03:50:52;17.33;;;5.70;;
70838;SDS011;58464;52.298;4.852;2022-07-30T03:53:18;13.23;;;5.15;;
70838;SDS011;58464;52.298;4.852;2022-07-30T03:55:47;12.02;;;4.82;;
70838;SDS011;58464;52.298;4.852;2022-07-30T03:58:14;15.55;;;5.35;;
70838;SDS011;58464;52.298;4.852;2022-07-30T04:00:39;15.38;;;5.43;;
70838;SDS011;58464;52.298;4.852;2022-07-30T04:03:05;16.15;;;6.10;;
70838;SDS011;58464;52.298;4.852;2022-07-30T04:05:31;12.05;;;5.07;;
70838;SDS011;58464;52.298;4.852;2022-07-30T04:07:57;18.52;;;5.93;;
70838;SDS011;58464;52.298;4.852;2022-07-30T04:10:22;12.68;;;5.43;;
70838;SDS011;58464;52.298;4.852;2022-07-30T04:12:48;17.67;;;4.95;;
70838;SDS011;58464;52.298;4.852;2022-07-30T04:15:13;10.68;;;4.05;;
70838;SDS011;58464;52.298;4.852;2022-07-30T04:17:40;14.05;;;4.90;;
70838;SDS011;58464;52.298;4.852;2022-07-30T04:20:18;14.10;;;5.05;;
70838;SDS011;58464;52.298;4.852;2022-07-30T04:22:47;14.18;;;4.75;;
70838;SDS011;58464;52.298;4.852;2022-07-30T04:25:14;14.68;;;5.47;;
70838;SDS011;58464;52.298;4.852;2022-07-30T04:27:40;14.02;;;5.18;;
70838;SDS011;58464;52.298;4.852;2022-07-30T04:30:06;13.63;;;5.05;;
70838;SDS011;58464;52.298;4.852;2022-07-30T04:32:32;15.73;;;5.50;;
70838;SDS011;58464;52.298;4.852;2022-07-30T04:34:58;12.68;;;5.18;;
70838;SDS011;58464;52.298;4.852;2022-07-30T04:37:24;16.75;;;5.30;;
70838;SDS011;58464;52.298;4.852;2022-07-30T04:39:51;9.88;;;5.28;;
70838;SDS011;58464;52.298;4.852;2022-07-30T04:42:21;13.95;;;5.10;;
70838;SDS011;58464;52.298;4.852;2022-07-30T04:44:47;9.48;;;4.53;;
70838;SDS011;58464;52.298;4.852;2022-07-30T04:47:14;9.85;;;5.00;;
70838;SDS011;58464;52.298;4.852;2022-07-30T04:49:39;16.48;;;5.45;;
70838;SDS011;58464;52.298;4.852;2022-07-30T04:52:06;17.67;;;5.50;;
70838;SDS011;58464;52.298;4.852;2022-07-30T04:54:35;15.68;;;5.47;;
70838;SDS011;58464;52.298;4.852;2022-07-30T04:57:04;12.95;;;5.13;;
70838;SDS011;58464;52.298;4.852;2022-07-30T04:59:31;14.25;;;5.65;;
70838;SDS011;58464;52.298;4.852;2022-07-30T05:01:58;13.40;;;5.22;;
70838;SDS011;58464;52.298;4.852;2022-07-30T05:04:25;10.88;;;4.78;;
70838;SDS011;58464;52.298;4.852;2022-07-30T05:06:52;12.15;;;5.55;;
70838;SDS011;58464;52.298;4.852;2022-07-30T05:09:19;9.45;;;4.82;;
70838;SDS011;58464;52.298;4.852;2022-07-30T05:11:54;13.70;;;5.03;;
70838;SDS011;58464;52.298;4.852;2022-07-30T05:14:23;9.25;;;4.28;;
70838;SDS011;58464;52.298;4.852;2022-07-30T05:16:50;17.70;;;4.90;;
70838;SDS011;58464;52.298;4.852;2022-07-30T05:19:16;13.50;;;4.60;;
70838;SDS011;58464;52.298;4.852;2022-07-30T05:21:43;12.25;;;4.78;;
70838;SDS011;58464;52.298;4.852;2022-07-30T05:24:08;18.42;;;4.50;;
70838;SDS011;58464;52.298;4.852;2022-07-30T05:26:33;24.92;;;5.35;;
70838;SDS011;58464;52.298;4.852;2022-07-30T05:28:59;10.40;;;4.05;;
70838;SDS011;58464;52.298;4.852;2022-07-30T05:31:25;9.32;;;4.30;;
70838;SDS011;58464;52.298;4.852;2022-07-30T05:33:50;12.27;;;4.38;;
70838;SDS011;58464;52.298;4.852;2022-07-30T05:36:16;9.23;;;3.40;;
70838;SDS011;58464;52.298;4.852;2022-07-30T05:38:43;9.40;;;3.90;;
70838;SDS011;58464;52.298;4.852;2022-07-30T05:41:08;10.60;;;4.50;;
70838;SDS011;58464;52.298;4.852;2022-07-30T05:43:33;10.32;;;4.25;;
70838;SDS011;58464;52.298;4.852;2022-07-30T05:45:59;8.45;;;3.70;;
70838;SDS011;58464;52.298;4.852;2022-07-30T05:48:24;10.95;;;4.63;;
70838;SDS011;58464;52.298;4.852;2022-07-30T05:50:51;12.20;;;3.70;;
70838;SDS011;58464;52.298;4.852;2022-07-30T05:53:17;6.30;;;2.83;;
70838;SDS011;58464;52.298;4.852;2022-07-30T05:55:42;9.77;;;3.40;;
70838;SDS011;58464;52.298;4.852;2022-07-30T05:58:08;9.15;;;3.45;;
70838;SDS011;58464;52.298;4.852;2022-07-30T06:00:33;17.05;;;3.33;;
70838;SDS011;58464;52.298;4.852;2022-07-30T06:02:59;5.97;;;2.33;;
70838;SDS011;58464;52.298;4.852;2022-07-30T06:05:26;7.22;;;2.35;;
70838;SDS011;58464;52.298;4.852;2022-07-30T06:07:52;10.15;;;2.83;;
70838;SDS011;58464;52.298;4.852;2022-07-30T06:10:18;6.03;;;2.03;;
70838;SDS011;58464;52.298;4.852;2022-07-30T06:12:43;7.03;;;2.00;;
70838;SDS011;58464;52.298;4.852;2022-07-30T06:15:09;11.68;;;2.58;;
70838;SDS011;58464;52.298;4.852;2022-07-30T06:17:39;7.10;;;2.22;;
70838;SDS011;58464;52.298;4.852;2022-07-30T06:20:09;5.38;;;1.80;;
70838;SDS011;58464;52.298;4.852;2022-07-30T06:22:35;6.95;;;1.75;;
70838;SDS011;58464;52.298;4.852;2022-07-30T06:25:01;2.60;;;1.15;;
70838;SDS011;58464;52.298;4.852;2022-07-30T06:27:26;5.13;;;1.33;;
70838;SDS011;58464;52.298;4.852;2022-07-30T06:29:52;5.95;;;1.58;;
70838;SDS011;58464;52.298;4.852;2022-07-30T06:32:17;3.63;;;1.17;;
70838;SDS011;58464;52.298;4.852;2022-07-30T06:34:43;6.07;;;1.45;;
70838;SDS011;58464;52.298;4.852;2022-07-30T06:37:09;5.68;;;1.35;;
70838;SDS011;58464;52.298;4.852;2022-07-30T06:39:34;5.93;;;1.90;;
70838;SDS011;58464;52.298;4.852;2022-07-30T06:42:00;5.38;;;1.30;;
70838;SDS011;58464;52.298;4.852;2022-07-30T06:44:25;7.32;;;1.30;;
70838;SDS011;58464;52.298;4.852;2022-07-30T06:46:51;5.00;;;1.92;;
70838;SDS011;58464;52.298;4.852;2022-07-30T06:49:16;5.28;;;1.95;;
70838;SDS011;58464;52.298;4.852;2022-07-30T06:51:41;7.07;;;1.92;;
70838;SDS011;58464;52.298;4.852;2022-07-30T06:54:07;3.53;;;1.30;;
70838;SDS011;58464;52.298;4.852;2022-07-30T06:56:32;6.90;;;1.35;;
70838;SDS011;58464;52.298;4.852;2022-07-30T06:58:57;4.15;;;1.45;;
70838;SDS011;58464;52.298;4.852;2022-07-30T07:01:23;4.28;;;1.50;;
70838;SDS011;58464;52.298;4.852;2022-07-30T07:03:48;5.35;;;1.35;;
70838;SDS011;58464;52.298;4.852;2022-07-30T07:06:14;2.60;;;1.23;;
70838;SDS011;58464;52.298;4.852;2022-07-30T07:08:40;5.40;;;1.40;;
70838;SDS011;58464;52.298;4.852;2022-07-30T07:11:05;6.38;;;1.30;;
70838;SDS011;58464;52.298;4.852;2022-07-30T07:13:30;10.88;;;2.55;;
70838;SDS011;58464;52.298;4.852;2022-07-30T07:15:56;4.28;;;1.23;;
70838;SDS011;58464;52.298;4.852;2022-07-30T07:18:22;4.72;;;1.42;;
70838;SDS011;58464;52.298;4.852;2022-07-30T07:20:47;6.65;;;1.30;;
70838;SDS011;58464;52.298;4.852;2022-07-30T07:23:13;4.95;;;1.08;;
70838;SDS011;58464;52.298;4.852;2022-07-30T07:25:38;3.03;;;1.05;;
70838;SDS011;58464;52.298;4.852;2022-07-30T07:28:04;6.25;;;1.45;;
70838;SDS011;58464;52.298;4.852;2022-07-30T07:30:31;8.95;;;1.42;;
70838;SDS011;58464;52.298;4.852;2022-07-30T07:32:57;3.85;;;1.40;;
70838;SDS011;58464;52.298;4.852;2022-07-30T07:35:22;4.47;;;1.50;;
70838;SDS011;58464;52.298;4.852;2022-07-30T07:37:48;4.60;;;1.45;;
70838;SDS011;58464;52.298;4.852;2022-07-30T07:40:13;7.47;;;1.17;;
70838;SDS011;58464;52.298;4.852;2022-07-30T07:42:39;2.78;;;1.10;;
70838;SDS011;58464;52.298;4.852;2022-07-30T07:45:04;3.20;;;1.23;;
70838;SDS011;58464;52.298;4.852;2022-07-30T07:47:30;2.47;;;1.23;;
70838;SDS011;58464;52.298;4.852;2022-07-30T07:49:56;4.85;;;1.70;;
70838;SDS011;58464;52.298;4.852;2022-07-30T07:52:21;3.58;;;1.15;;
70838;SDS011;58464;52.298;4.852;2022-07-30T07:54:46;2.42;;;1.10;;
70838;SDS011;58464;52.298;4.852;2022-07-30T07:57:12;3.33;;;1.13;;
70838;SDS011;58464;52.298;4.852;2022-07-30T07:59:37;5.10;;;1.10;;
70838;SDS011;58464;52.298;4.852;2022-07-30T08:02:02;4.13;;;1.10;;
70838;SDS011;58464;52.298;4.852;2022-07-30T08:04:31;19.35;;;5.35;;
70838;SDS011;58464;52.298;4.852;2022-07-30T08:06:56;6.97;;;2.40;;
70838;SDS011;58464;52.298;4.852;2022-07-30T08:09:22;9.55;;;1.65;;
70838;SDS011;58464;52.298;4.852;2022-07-30T08:11:47;3.08;;;0.98;;
70838;SDS011;58464;52.298;4.852;2022-07-30T08:14:12;2.75;;;1.13;;
70838;SDS011;58464;52.298;4.852;2022-07-30T08:16:38;2.40;;;1.20;;
70838;SDS011;58464;52.298;4.852;2022-07-30T08:19:03;5.07;;;1.20;;
70838;SDS011;58464;52.298;4.852;2022-07-30T08:21:29;4.03;;;1.48;;
70838;SDS011;58464;52.298;4.852;2022-07-30T08:23:54;6.57;;;1.98;;
70838;SDS011;58464;52.298;4.852;2022-07-30T08:26:20;5.65;;;1.23;;
70838;SDS011;58464;52.298;4.852;2022-07-30T08:28:45;3.67;;;1.13;;
70838;SDS011;58464;52.298;4.852;2022-07-30T08:31:10;2.42;;;1.00;;
70838;SDS011;58464;52.298;4.852;2022-07-30T08:33:36;5.93;;;1.70;;
70838;SDS011;58464;52.298;4.852;2022-07-30T08:36:02;7.43;;;1.40;;
70838;SDS011;58464;52.298;4.852;2022-07-30T08:38:28;4.32;;;2.03;;
70838;SDS011;58464;52.298;4.852;2022-07-30T08:40:54;4.57;;;1.30;;
70838;SDS011;58464;52.298;4.852;2022-07-30T08:43:20;4.90;;;1.60;;
70838;SDS011;58464;52.298;4.852;2022-07-30T08:45:48;11.60;;;1.70;;
70838;SDS011;58464;52.298;4.852;2022-07-30T08:48:13;6.10;;;1.60;;
70838;SDS011;58464;52.298;4.852;2022-07-30T08:50:41;4.68;;;1.48;;
70838;SDS011;58464;52.298;4.852;2022-07-30T08:53:08;6.18;;;2.00;;
70838;SDS011;58464;52.298;4.852;2022-07-30T08:55:34;7.32;;;1.67;;
70838;SDS011;58464;52.298;4.852;2022-07-30T08:57:59;7.35;;;2.00;;
70838;SDS011;58464;52.298;4.852;2022-07-30T09:00:27;5.10;;;1.50;;
70838;SDS011;58464;52.298;4.852;2022-07-30T09:02:52;9.27;;;1.52;;
70838;SDS011;58464;52.298;4.852;2022-07-30T09:05:18;4.90;;;1.63;;
70838;SDS011;58464;52.298;4.852;2022-07-30T09:07:43;3.25;;;1.20;;
70838;SDS011;58464;52.298;4.852;2022-07-30T09:10:09;3.25;;;1.33;;
70838;SDS011;58464;52.298;4.852;2022-07-30T09:15:12;2.72;;;1.70;;
70838;SDS011;58464;52.298;4.852;2022-07-30T09:17:44;9.02;;;1.60;;
70838;SDS011;58464;52.298;4.852;2022-07-30T09:20:13;6.35;;;1.58;;
70838;SDS011;58464;52.298;4.852;2022-07-30T09:22:46;2.30;;;1.02;;
70838;SDS011;58464;52.298;4.852;2022-07-30T09:25:13;7.35;;;1.83;;
70838;SDS011;58464;52.298;4.852;2022-07-30T09:27:57;4.55;;;1.10;;
70838;SDS011;58464;52.298;4.852;2022-07-30T09:30:22;28.52;;;1.58;;
70838;SDS011;58464;52.298;4.852;2022-07-30T09:32:52;2.83;;;1.00;;
70838;SDS011;58464;52.298;4.852;2022-07-30T09:35:20;5.10;;;1.20;;
70838;SDS011;58464;52.298;4.852;2022-07-30T09:37:46;4.07;;;1.30;;
70838;SDS011;58464;52.298;4.852;2022-07-30T09:40:23;3.58;;;0.90;;
70838;SDS011;58464;52.298;4.852;2022-07-30T09:42:48;1.67;;;0.90;;
70838;SDS011;58464;52.298;4.852;2022-07-30T09:45:35;3.95;;;1.20;;
70838;SDS011;58464;52.298;4.852;2022-07-30T09:48:20;3.67;;;1.38;;
70838;SDS011;58464;52.298;4.852;2022-07-30T09:50:50;2.42;;;1.08;;
70838;SDS011;58464;52.298;4.852;2022-07-30T09:53:16;3.08;;;1.38;;
70838;SDS011;58464;52.298;4.852;2022-07-30T09:55:43;2.90;;;1.23;;
70838;SDS011;58464;52.298;4.852;2022-07-30T09:58:09;4.85;;;1.55;;
70838;SDS011;58464;52.298;4.852;2022-07-30T10:00:36;4.32;;;1.00;;
70838;SDS011;58464;52.298;4.852;2022-07-30T10:03:16;11.70;;;1.70;;
70838;SDS011;58464;52.298;4.852;2022-07-30T10:05:53;3.90;;;0.88;;
70838;SDS011;58464;52.298;4.852;2022-07-30T10:11:10;4.78;;;1.20;;
70838;SDS011;58464;52.298;4.852;2022-07-30T10:13:38;4.28;;;1.40;;
70838;SDS011;58464;52.298;4.852;2022-07-30T10:16:05;2.80;;;1.33;;
70838;SDS011;58464;52.298;4.852;2022-07-30T10:18:31;1.70;;;0.80;;
70838;SDS011;58464;52.298;4.852;2022-07-30T10:20:56;2.67;;;1.15;;
70838;SDS011;58464;52.298;4.852;2022-07-30T10:23:23;3.13;;;1.38;;
70838;SDS011;58464;52.298;4.852;2022-07-30T10:25:53;3.25;;;1.13;;
70838;SDS011;58464;52.298;4.852;2022-07-30T10:28:20;2.10;;;1.50;;
70838;SDS011;58464;52.298;4.852;2022-07-30T10:30:47;6.28;;;0.90;;
70838;SDS011;58464;52.298;4.852;2022-07-30T10:33:14;1.70;;;0.90;;
70838;SDS011;58464;52.298;4.852;2022-07-30T10:35:40;2.65;;;0.88;;
70838;SDS011;58464;52.298;4.852;2022-07-30T10:38:09;4.53;;;0.77;;
70838;SDS011;58464;52.298;4.852;2022-07-30T10:49:18;3.83;;;1.13;;
70838;SDS011;58464;52.298;4.852;2022-07-30T10:57:04;4.78;;;1.55;;
70838;SDS011;58464;52.298;4.852;2022-07-30T11:00:03;4.90;;;0.80;;
70838;SDS011;58464;52.298;4.852;2022-07-30T11:02:20;1.65;;;0.80;;
70838;SDS011;58464;52.298;4.852;2022-07-30T11:04:46;5.18;;;1.35;;
70838;SDS011;58464;52.298;4.852;2022-07-30T11:07:30;6.75;;;1.00;;
70838;SDS011;58464;52.298;4.852;2022-07-30T11:09:56;8.32;;;1.63;;
70838;SDS011;58464;52.298;4.852;2022-07-30T11:15:06;3.40;;;0.93;;
70838;SDS011;58464;52.298;4.852;2022-07-30T11:20:31;2.08;;;0.95;;
70838;SDS011;58464;52.298;4.852;2022-07-30T11:25:44;2.22;;;1.08;;
70838;SDS011;58464;52.298;4.852;2022-07-30T11:31:04;2.30;;;1.00;;
70838;SDS011;58464;52.298;4.852;2022-07-30T11:33:50;4.63;;;1.88;;
70838;SDS011;58464;52.298;4.852;2022-07-30T11:36:18;2.67;;;1.02;;
70838;SDS011;58464;52.298;4.852;2022-07-30T11:41:32;6.35;;;3.20;;
70838;SDS011;58464;52.298;4.852;2022-07-30T11:46:54;2.70;;;1.10;;
70838;SDS011;58464;52.298;4.852;2022-07-30T11:49:19;2.92;;;1.33;;
70838;SDS011;58464;52.298;4.852;2022-07-30T11:51:46;3.75;;;1.30;;
70838;SDS011;58464;52.298;4.852;2022-07-30T11:54:13;6.63;;;1.23;;
70838;SDS011;58464;52.298;4.852;2022-07-30T11:56:52;3.10;;;1.42;;
70838;SDS011;58464;52.298;4.852;2022-07-30T11:59:21;1.65;;;1.02;;
70838;SDS011;58464;52.298;4.852;2022-07-30T12:01:48;3.75;;;1.05;;
70838;SDS011;58464;52.298;4.852;2022-07-30T12:04:20;2.92;;;1.13;;
70838;SDS011;58464;52.298;4.852;2022-07-30T12:06:46;5.95;;;1.25;;
70838;SDS011;58464;52.298;4.852;2022-07-30T12:09:22;2.17;;;0.77;;
70838;SDS011;58464;52.298;4.852;2022-07-30T12:11:52;2.65;;;1.02;;
70838;SDS011;58464;52.298;4.852;2022-07-30T12:14:18;5.95;;;1.40;;
70838;SDS011;58464;52.298;4.852;2022-07-30T12:16:53;11.18;;;1.75;;
70838;SDS011;58464;52.298;4.852;2022-07-30T12:19:18;2.03;;;0.98;;
70838;SDS011;58464;52.298;4.852;2022-07-30T12:21:44;1.90;;;0.90;;
70838;SDS011;58464;52.298;4.852;2022-07-30T12:24:10;7.88;;;1.35;;
70838;SDS011;58464;52.298;4.852;2022-07-30T12:26:36;3.92;;;1.20;;
70838;SDS011;58464;52.298;4.852;2022-07-30T12:29:03;8.18;;;1.48;;
70838;SDS011;58464;52.298;4.852;2022-07-30T12:31:30;3.67;;;1.05;;
70838;SDS011;58464;52.298;4.852;2022-07-30T12:33:57;1.70;;;1.10;;
70838;SDS011;58464;52.298;4.852;2022-07-30T12:38:53;7.85;;;1.45;;
70838;SDS011;58464;52.298;4.852;2022-07-30T12:41:20;8.35;;;1.35;;
70838;SDS011;58464;52.298;4.852;2022-07-30T12:43:53;5.07;;;1.15;;
70838;SDS011;58464;52.298;4.852;2022-07-30T12:46:21;3.60;;;1.13;;
70838;SDS011;58464;52.298;4.852;2022-07-30T12:48:59;2.47;;;1.17;;
70838;SDS011;58464;52.298;4.852;2022-07-30T12:51:27;10.80;;;1.40;;
70838;SDS011;58464;52.298;4.852;2022-07-30T12:53:54;2.40;;;0.90;;
70838;SDS011;58464;52.298;4.852;2022-07-30T12:56:22;3.33;;;1.25;;
70838;SDS011;58464;52.298;4.852;2022-07-30T12:58:49;5.85;;;2.00;;
70838;SDS011;58464;52.298;4.852;2022-07-30T13:01:14;6.20;;;1.20;;
70838;SDS011;58464;52.298;4.852;2022-07-30T13:03:41;2.97;;;1.20;;
70838;SDS011;58464;52.298;4.852;2022-07-30T13:06:19;7.82;;;1.75;;
70838;SDS011;58464;52.298;4.852;2022-07-30T13:11:16;3.80;;;1.10;;
70838;SDS011;58464;52.298;4.852;2022-07-30T13:13:43;6.72;;;1.10;;
70838;SDS011;58464;52.298;4.852;2022-07-30T13:16:10;3.30;;;0.80;;
70838;SDS011;58464;52.298;4.852;2022-07-30T13:18:39;6.07;;;1.10;;
70838;SDS011;58464;52.298;4.852;2022-07-30T13:21:05;3.88;;;1.15;;
70838;SDS011;58464;52.298;4.852;2022-07-30T13:23:33;6.78;;;1.30;;
70838;SDS011;58464;52.298;4.852;2022-07-30T13:25:59;8.20;;;2.30;;
70838;SDS011;58464;52.298;4.852;2022-07-30T13:28:24;9.25;;;3.28;;
70838;SDS011;58464;52.298;4.852;2022-07-30T13:30:50;5.90;;;1.27;;
70838;SDS011;58464;52.298;4.852;2022-07-30T13:33:16;6.22;;;1.15;;
70838;SDS011;58464;52.298;4.852;2022-07-30T13:35:44;3.22;;;1.00;;
70838;SDS011;58464;52.298;4.852;2022-07-30T13:38:09;4.57;;;1.30;;
70838;SDS011;58464;52.298;4.852;2022-07-30T13:40:37;4.93;;;1.17;;
70838;SDS011;58464;52.298;4.852;2022-07-30T13:43:02;6.30;;;1.23;;
70838;SDS011;58464;52.298;4.852;2022-07-30T13:45:28;4.93;;;1.70;;
70838;SDS011;58464;52.298;4.852;2022-07-30T13:47:54;7.90;;;1.65;;
70838;SDS011;58464;52.298;4.852;2022-07-30T13:50:20;2.17;;;0.80;;
70838;SDS011;58464;52.298;4.852;2022-07-30T13:52:46;4.65;;;1.25;;
70838;SDS011;58464;52.298;4.852;2022-07-30T13:55:11;6.18;;;1.60;;
70838;SDS011;58464;52.298;4.852;2022-07-30T13:57:37;8.27;;;1.40;;
70838;SDS011;58464;52.298;4.852;2022-07-30T14:00:03;2.42;;;1.23;;
70838;SDS011;58464;52.298;4.852;2022-07-30T14:02:30;5.43;;;1.80;;
70838;SDS011;58464;52.298;4.852;2022-07-30T14:04:56;16.95;;;2.92;;
70838;SDS011;58464;52.298;4.852;2022-07-30T14:07:21;9.80;;;1.23;;
70838;SDS011;58464;52.298;4.852;2022-07-30T14:09:47;9.73;;;1.17;;
70838;SDS011;58464;52.298;4.852;2022-07-30T14:12:12;4.15;;;1.35;;
70838;SDS011;58464;52.298;4.852;2022-07-30T14:14:38;8.73;;;2.13;;
70838;SDS011;58464;52.298;4.852;2022-07-30T14:17:03;2.30;;;1.20;;
70838;SDS011;58464;52.298;4.852;2022-07-30T14:19:28;6.15;;;1.30;;
70838;SDS011;58464;52.298;4.852;2022-07-30T14:21:54;3.47;;;1.10;;
70838;SDS011;58464;52.298;4.852;2022-07-30T14:24:20;6.05;;;1.52;;
70838;SDS011;58464;52.298;4.852;2022-07-30T14:26:48;4.97;;;1.15;;
70838;SDS011;58464;52.298;4.852;2022-07-30T14:29:14;7.60;;;2.10;;
70838;SDS011;58464;52.298;4.852;2022-07-30T14:31:41;4.40;;;1.60;;
70838;SDS011;58464;52.298;4.852;2022-07-30T14:34:06;2.42;;;0.73;;
70838;SDS011;58464;52.298;4.852;2022-07-30T14:36:32;3.97;;;1.20;;
70838;SDS011;58464;52.298;4.852;2022-07-30T14:38:58;5.05;;;1.30;;
70838;SDS011;58464;52.298;4.852;2022-07-30T14:41:25;5.70;;;1.25;;
70838;SDS011;58464;52.298;4.852;2022-07-30T14:43:50;5.35;;;1.63;;
70838;SDS011;58464;52.298;4.852;2022-07-30T14:46:16;6.07;;;1.13;;
70838;SDS011;58464;52.298;4.852;2022-07-30T14:48:42;5.00;;;1.98;;
70838;SDS011;58464;52.298;4.852;2022-07-30T14:51:12;5.75;;;1.60;;
70838;SDS011;58464;52.298;4.852;2022-07-30T14:53:41;7.90;;;1.90;;
70838;SDS011;58464;52.298;4.852;2022-07-30T14:56:06;3.85;;;1.42;;
70838;SDS011;58464;52.298;4.852;2022-07-30T14:58:32;3.80;;;1.23;;
70838;SDS011;58464;52.298;4.852;2022-07-30T15:00:57;3.88;;;1.98;;
70838;SDS011;58464;52.298;4.852;2022-07-30T15:03:23;5.00;;;1.70;;
70838;SDS011;58464;52.298;4.852;2022-07-30T15:05:49;4.25;;;1.35;;
70838;SDS011;58464;52.298;4.852;2022-07-30T15:08:14;9.70;;;2.83;;
70838;SDS011;58464;52.298;4.852;2022-07-30T15:10:40;11.73;;;3.17;;
70838;SDS011;58464;52.298;4.852;2022-07-30T15:13:05;4.43;;;1.63;;
70838;SDS011;58464;52.298;4.852;2022-07-30T15:15:30;4.45;;;1.42;;
70838;SDS011;58464;52.298;4.852;2022-07-30T15:17:57;4.47;;;1.02;;
70838;SDS011;58464;52.298;4.852;2022-07-30T15:20:22;2.75;;;1.13;;
70838;SDS011;58464;52.298;4.852;2022-07-30T15:22:48;4.60;;;1.23;;
70838;SDS011;58464;52.298;4.852;2022-07-30T15:25:13;4.70;;;1.60;;
70838;SDS011;58464;52.298;4.852;2022-07-30T15:27:39;3.67;;;1.15;;
70838;SDS011;58464;52.298;4.852;2022-07-30T15:30:04;2.70;;;1.05;;